createdAt,value
2023-02-19T00:00:11.607Z,8.63
2023-02-19T00:02:46.547Z,8.61
2023-02-19T00:05:14.626Z,8.59
2023-02-19T00:07:45.064Z,8.57
2023-02-19T00:10:14.717Z,8.61
2023-02-19T00:12:42.844Z,8.59
2023-02-19T00:15:33.490Z,8.56
2023-02-19T00:18:01.548Z,8.61
2023-02-19T00:20:30.017Z,8.58
2023-02-19T00:22:58.355Z,8.57
2023-02-19T00:25:27.890Z,8.61
2023-02-19T00:27:56.071Z,8.59
2023-02-19T00:30:24.440Z,8.60
2023-02-19T00:32:52.573Z,8.60
2023-02-19T00:35:20.860Z,8.54
2023-02-19T00:37:49.486Z,8.60
2023-02-19T00:40:20.308Z,8.57
2023-02-19T00:42:49.771Z,8.55
2023-02-19T00:45:20.816Z,8.58
2023-02-19T00:47:49.004Z,8.59
2023-02-19T00:50:17.458Z,8.54
2023-02-19T00:52:45.499Z,8.59
2023-02-19T00:55:13.607Z,8.54
2023-02-19T00:57:41.682Z,8.59
2023-02-19T01:00:15.242Z,8.60
2023-02-19T01:02:43.373Z,8.61
2023-02-19T01:05:11.548Z,8.56
2023-02-19T01:07:39.619Z,8.52
2023-02-19T01:10:09.668Z,8.56
2023-02-19T01:12:37.771Z,8.55
2023-02-19T01:15:06.605Z,8.50
2023-02-19T01:17:38.116Z,8.50
2023-02-19T01:20:09.064Z,8.49
2023-02-19T01:22:37.157Z,8.45
2023-02-19T01:25:07.969Z,8.48
2023-02-19T01:27:36.025Z,8.50
2023-02-19T01:30:04.655Z,8.46
2023-02-19T01:32:32.790Z,8.44
2023-02-19T01:35:05.880Z,8.43
2023-02-19T01:37:34.146Z,8.41
2023-02-19T01:40:02.314Z,8.42
2023-02-19T01:42:30.606Z,8.34
2023-02-19T01:45:28.447Z,8.31
2023-02-19T01:48:11.069Z,8.28
2023-02-19T01:50:47.120Z,8.27
2023-02-19T01:53:22.422Z,8.23
2023-02-19T01:55:54.240Z,8.23
2023-02-19T01:58:22.990Z,8.24
2023-02-19T02:00:52.019Z,8.21
2023-02-19T02:03:20.819Z,8.27
2023-02-19T02:05:57.467Z,8.21
2023-02-19T02:10:35.592Z,8.22
2023-02-19T02:13:04.054Z,8.23
2023-02-19T02:15:41.046Z,8.26
2023-02-19T02:18:21.005Z,8.25
2023-02-19T02:21:04.806Z,8.28
2023-02-19T02:23:47.570Z,8.27
2023-02-19T02:26:31.699Z,8.29
2023-02-19T02:29:27.150Z,8.27
2023-02-19T02:32:04.451Z,8.29
2023-02-19T02:34:38.952Z,8.34
2023-02-19T02:37:09.084Z,8.35
2023-02-19T02:39:39.460Z,8.34
2023-02-19T02:42:26.082Z,8.30
2023-02-19T02:45:36.111Z,8.34
2023-02-19T02:48:21.444Z,8.33
2023-02-19T02:50:54.962Z,8.32
2023-02-19T02:53:46.838Z,8.30
2023-02-19T02:56:16.742Z,8.34
2023-02-19T02:58:46.837Z,8.33
2023-02-19T03:01:36.675Z,8.29
2023-02-19T03:04:11.018Z,8.27
2023-02-19T03:06:39.666Z,8.24
2023-02-19T03:09:12.665Z,8.27
2023-02-19T03:12:06.097Z,8.26
2023-02-19T03:14:57.486Z,8.31
2023-02-19T03:17:48.682Z,8.33
2023-02-19T03:20:22.414Z,8.39
2023-02-19T03:22:54.344Z,8.26
2023-02-19T03:25:43.687Z,8.39
2023-02-19T03:28:17.643Z,8.39
2023-02-19T03:30:51.586Z,8.35
2023-02-19T03:33:23.787Z,8.43
2023-02-19T03:35:57.597Z,8.38
2023-02-19T03:38:37.916Z,8.45
2023-02-19T03:41:12.752Z,8.42
2023-02-19T03:43:52.358Z,8.43
2023-02-19T03:46:26.539Z,8.41
2023-02-19T03:49:00.088Z,8.46
2023-02-19T03:51:39.260Z,8.43
2023-02-19T03:54:18.296Z,8.45
2023-02-19T03:56:52.815Z,8.46
2023-02-19T03:59:29.751Z,8.49
2023-02-19T04:02:04.180Z,8.49
2023-02-19T04:04:40.430Z,8.43
2023-02-19T04:07:12.035Z,8.39
2023-02-19T04:09:46.757Z,8.38
2023-02-19T04:12:20.351Z,8.35
2023-02-19T04:14:55.529Z,8.38
2023-02-19T04:17:30.603Z,8.40
2023-02-19T04:20:02.247Z,8.39
2023-02-19T04:22:35.169Z,8.40
2023-02-19T04:25:03.918Z,8.42
2023-02-19T04:27:32.840Z,8.41
2023-02-19T04:30:01.065Z,8.31
2023-02-19T04:32:29.510Z,8.27
2023-02-19T04:34:57.591Z,8.20
2023-02-19T04:37:28.149Z,8.17
2023-02-19T04:39:59.783Z,8.07
2023-02-19T04:42:30.576Z,7.99
2023-02-19T04:44:58.704Z,7.99
2023-02-19T04:47:27.186Z,7.98
2023-02-19T04:49:55.276Z,7.94
2023-02-19T04:52:23.732Z,7.92
2023-02-19T04:54:52.232Z,7.87
2023-02-19T04:57:22.072Z,7.90
2023-02-19T04:59:50.133Z,7.93
2023-02-19T05:02:18.414Z,7.97
2023-02-19T05:04:46.508Z,7.97
2023-02-19T05:07:14.750Z,7.97
2023-02-19T05:09:42.812Z,7.98
2023-02-19T05:12:11.034Z,7.98
2023-02-19T05:14:40.474Z,7.95
2023-02-19T05:17:08.929Z,7.88
2023-02-19T05:19:36.976Z,7.91
2023-02-19T05:22:07.643Z,7.87
2023-02-19T05:24:35.725Z,7.82
2023-02-19T05:27:04.127Z,7.81
2023-02-19T05:29:32.776Z,7.69
2023-02-19T05:32:02.833Z,7.63
2023-02-19T05:34:31.135Z,7.57
2023-02-19T05:37:01.752Z,7.47
2023-02-19T05:39:35.494Z,7.36
2023-02-19T05:42:06.698Z,7.28
2023-02-19T05:44:34.872Z,7.24
2023-02-19T05:47:04.817Z,7.16
2023-02-19T05:49:33.020Z,7.10
2023-02-19T05:52:03.581Z,7.08
2023-02-19T05:54:32.500Z,7.06
2023-02-19T05:57:00.836Z,7.07
2023-02-19T05:59:29.122Z,7.06
2023-02-19T06:01:58.467Z,7.03
2023-02-19T06:04:28.051Z,6.98
2023-02-19T06:06:56.458Z,6.98
2023-02-19T06:09:26.838Z,6.97
2023-02-19T06:11:55.276Z,6.94
2023-02-19T06:14:23.446Z,6.95
2023-02-19T06:16:51.577Z,6.94
2023-02-19T06:19:20.224Z,6.90
2023-02-19T06:21:51.374Z,6.85
2023-02-19T06:24:19.887Z,6.85
2023-02-19T06:26:47.985Z,6.82
2023-02-19T06:29:17.890Z,6.79
2023-02-19T06:31:46.263Z,6.81
2023-02-19T06:34:14.630Z,6.84
2023-02-19T06:36:45.109Z,6.84
2023-02-19T06:39:14.713Z,6.89
2023-02-19T06:41:42.854Z,6.89
2023-02-19T06:44:11.264Z,6.84
2023-02-19T06:46:39.712Z,6.85
2023-02-19T06:49:07.948Z,6.83
2023-02-19T06:51:36.175Z,6.83
2023-02-19T06:54:04.492Z,6.85
2023-02-19T06:56:35.518Z,6.89
2023-02-19T06:59:06.053Z,6.87
2023-02-19T07:01:36.423Z,6.88
2023-02-19T07:04:05.046Z,6.90
2023-02-19T07:06:34.637Z,6.94
2023-02-19T07:11:37.950Z,6.96
2023-02-19T07:14:14.753Z,7.06
2023-02-19T07:16:43.462Z,7.13
2023-02-19T07:19:13.021Z,7.20
2023-02-19T07:21:42.499Z,7.22
2023-02-19T07:24:11.423Z,7.31
2023-02-19T07:26:41.576Z,7.45
2023-02-19T07:29:11.085Z,7.62
2023-02-19T07:31:39.720Z,7.79
2023-02-19T07:34:08.673Z,7.87
2023-02-19T07:36:36.985Z,7.92
2023-02-19T07:39:05.682Z,8.05
2023-02-19T07:41:34.276Z,8.16
2023-02-19T07:44:04.294Z,8.26
2023-02-19T07:46:32.958Z,8.38
2023-02-19T07:49:01.378Z,8.51
2023-02-19T07:51:29.848Z,8.61
2023-02-19T07:53:58.491Z,8.70
2023-02-19T07:56:28.972Z,8.76
2023-02-19T07:58:57.049Z,8.79
2023-02-19T08:01:40.665Z,8.79
2023-02-19T08:04:12.773Z,8.84
2023-02-19T08:06:41.905Z,8.89
2023-02-19T08:09:12.084Z,8.89
2023-02-19T08:12:00.262Z,8.98
2023-02-19T08:14:28.770Z,8.95
2023-02-19T08:19:44.045Z,8.97
2023-02-19T08:22:12.820Z,9.04
2023-02-19T08:24:42.984Z,9.16
2023-02-19T08:27:11.357Z,9.30
2023-02-19T08:29:39.795Z,9.33
2023-02-19T08:32:09.488Z,9.47
2023-02-19T08:34:38.025Z,9.43
2023-02-19T08:37:06.383Z,9.51
2023-02-19T08:39:34.638Z,9.53
2023-02-19T08:42:03.010Z,9.77
2023-02-19T08:44:31.137Z,9.90
2023-02-19T08:46:59.564Z,10.07
2023-02-19T08:49:29.384Z,10.11
2023-02-19T08:52:02.196Z,10.34
2023-02-19T08:54:31.507Z,10.38
2023-02-19T08:56:59.846Z,10.30
2023-02-19T08:59:29.936Z,10.38
2023-02-19T09:01:59.650Z,10.06
2023-02-19T09:04:32.447Z,10.03
2023-02-19T09:07:00.866Z,9.91
2023-02-19T09:09:28.951Z,9.82
2023-02-19T09:11:57.286Z,9.93
2023-02-19T09:14:28.254Z,9.79
2023-02-19T09:17:15.081Z,10.09
2023-02-19T09:19:44.771Z,10.14
2023-02-19T09:22:13.077Z,10.17
2023-02-19T09:24:41.194Z,10.23
2023-02-19T09:27:16.994Z,10.15
2023-02-19T09:29:48.117Z,10.17
2023-02-19T09:32:18.811Z,10.10
2023-02-19T09:34:50.049Z,10.16
2023-02-19T09:37:18.533Z,10.32
2023-02-19T09:39:46.578Z,10.42
2023-02-19T09:42:19.595Z,10.55
2023-02-19T09:44:53.709Z,10.67
2023-02-19T09:47:26.394Z,10.71
2023-02-19T09:49:58.261Z,10.90
2023-02-19T09:52:32.769Z,10.95
2023-02-19T09:55:05.921Z,10.73
2023-02-19T09:57:37.834Z,10.71
2023-02-19T10:00:15.192Z,10.63
2023-02-19T10:02:45.981Z,10.67
2023-02-19T10:05:17.378Z,10.82
2023-02-19T10:07:51.165Z,10.73
2023-02-19T10:10:28.664Z,10.92
2023-02-19T10:13:11.290Z,10.99
2023-02-19T10:15:47.408Z,10.98
2023-02-19T10:18:19.211Z,12.75
2023-02-19T10:20:49.543Z,14.12
2023-02-19T10:23:21.295Z,15.46
2023-02-19T10:25:54.301Z,16.83
2023-02-19T10:28:25.848Z,16.96
2023-02-19T10:30:56.189Z,16.77
2023-02-19T10:33:24.910Z,14.95
2023-02-19T10:35:59.058Z,13.99
2023-02-19T10:38:33.324Z,13.82
2023-02-19T10:41:06.901Z,13.12
2023-02-19T10:43:40.150Z,13.00
2023-02-19T10:46:09.409Z,12.96
2023-02-19T10:48:41.952Z,12.40
2023-02-19T10:51:20.893Z,12.95
2023-02-19T10:53:51.265Z,13.02
2023-02-19T10:56:25.123Z,13.71
2023-02-19T10:58:54.389Z,13.78
2023-02-19T11:01:24.063Z,13.87
2023-02-19T11:03:54.305Z,13.83
2023-02-19T11:06:28.023Z,13.24
2023-02-19T11:08:58.751Z,13.41
2023-02-19T11:11:34.182Z,12.98
2023-02-19T11:14:06.458Z,13.05
2023-02-19T11:16:46.752Z,12.96
2023-02-19T11:19:37.737Z,12.92
2023-02-19T11:22:22.034Z,12.55
2023-02-19T11:24:55.702Z,12.62
2023-02-19T11:27:26.212Z,12.80
2023-02-19T11:29:54.721Z,13.14
2023-02-19T11:32:26.548Z,14.12
2023-02-19T11:35:17.757Z,15.17
2023-02-19T11:38:02.591Z,14.87
2023-02-19T11:40:41.185Z,14.75
2023-02-19T11:43:24.946Z,14.21
2023-02-19T11:46:07.342Z,13.94
2023-02-19T11:48:54.893Z,13.82
2023-02-19T11:51:35.579Z,13.81
2023-02-19T11:54:19.764Z,13.86
2023-02-19T11:56:56.470Z,14.06
2023-02-19T11:59:37.016Z,14.46
2023-02-19T12:02:26.479Z,14.72
2023-02-19T12:05:26.904Z,14.09
2023-02-19T12:08:37.708Z,13.51
2023-02-19T12:12:51.476Z,13.59
2023-02-19T12:15:31.404Z,13.85
2023-02-19T12:18:29.568Z,13.15
2023-02-19T12:21:07.564Z,12.76
2023-02-19T12:23:53.186Z,13.00
2023-02-19T12:26:27.064Z,13.11
2023-02-19T12:29:25.148Z,12.96
2023-02-19T12:32:13.398Z,13.05
2023-02-19T12:35:08.199Z,13.54
2023-02-19T12:37:46.032Z,14.68
2023-02-19T12:40:29.134Z,14.67
2023-02-19T12:43:10.842Z,14.29
2023-02-19T12:45:48.297Z,13.80
2023-02-19T12:48:25.463Z,13.56
2023-02-19T12:50:58.345Z,13.55
2023-02-19T12:53:37.178Z,13.96
2023-02-19T12:56:11.670Z,14.16
2023-02-19T12:58:45.180Z,13.72
2023-02-19T13:01:20.696Z,13.44
2023-02-19T13:03:55.098Z,13.68
2023-02-19T13:06:32.975Z,13.55
2023-02-19T13:09:09.195Z,13.43
2023-02-19T13:11:41.287Z,13.55
2023-02-19T13:14:22.233Z,13.74
2023-02-19T13:16:58.671Z,13.55
2023-02-19T13:19:27.005Z,13.52
2023-02-19T13:22:22.679Z,13.34
2023-02-19T13:24:52.828Z,13.06
2023-02-19T13:27:38.400Z,13.11
2023-02-19T13:30:24.006Z,13.17
2023-02-19T13:33:04.573Z,13.03
2023-02-19T13:36:10.803Z,13.09
2023-02-19T13:38:41.533Z,12.67
2023-02-19T13:41:20.932Z,12.68
2023-02-19T13:43:57.252Z,12.70
2023-02-19T13:46:26.461Z,12.87
2023-02-19T13:49:33.774Z,12.86
2023-02-19T13:52:38.701Z,12.52
2023-02-19T13:55:44.394Z,12.21
2023-02-19T13:58:54.509Z,11.92
2023-02-19T14:02:08.252Z,11.99
2023-02-19T14:04:53.741Z,12.06
2023-02-19T14:07:51.732Z,12.20
2023-02-19T14:11:05.083Z,12.37
2023-02-19T14:14:01.657Z,12.44
2023-02-19T14:17:07.537Z,12.34
2023-02-19T14:19:47.225Z,12.34
2023-02-19T14:23:07.386Z,12.39
2023-02-19T14:25:44.695Z,12.39
2023-02-19T14:28:30.536Z,12.17
2023-02-19T14:31:01.726Z,12.13
2023-02-19T14:33:33.278Z,11.98
2023-02-19T14:36:06.927Z,11.98
2023-02-19T14:38:40.460Z,12.02
2023-02-19T14:41:14.784Z,11.84
2023-02-19T14:43:44.603Z,11.94
2023-02-19T14:46:19.931Z,11.96
2023-02-19T14:48:53.161Z,11.92
2023-02-19T14:51:32.402Z,11.92
2023-02-19T14:54:10.355Z,11.77
2023-02-19T14:56:40.645Z,11.88
2023-02-19T14:59:23.677Z,11.74
2023-02-19T15:02:00.547Z,11.73
2023-02-19T15:04:31.849Z,11.73
2023-02-19T15:07:04.140Z,11.76
2023-02-19T15:09:38.187Z,11.66
2023-02-19T15:12:08.932Z,11.63
2023-02-19T15:14:37.437Z,11.62
2023-02-19T15:17:07.259Z,11.62
2023-02-19T15:19:39.724Z,11.61
2023-02-19T15:22:16.273Z,11.66
2023-02-19T15:24:48.511Z,11.48
2023-02-19T15:27:20.855Z,11.40
2023-02-19T15:29:53.278Z,11.46
2023-02-19T15:32:23.394Z,11.16
2023-02-19T15:34:56.465Z,10.89
2023-02-19T15:37:26.138Z,10.79
2023-02-19T15:39:55.393Z,10.49
2023-02-19T15:42:28.097Z,10.42
2023-02-19T15:45:04.491Z,10.39
2023-02-19T15:47:38.904Z,10.40
2023-02-19T15:50:11.498Z,10.31
2023-02-19T15:52:47.897Z,10.30
2023-02-19T15:55:35.907Z,10.23
2023-02-19T15:58:10.804Z,10.24
2023-02-19T16:00:44.131Z,10.14
2023-02-19T16:03:19.820Z,10.15
2023-02-19T16:06:00.560Z,10.08
2023-02-19T16:08:31.164Z,10.04
2023-02-19T16:11:02.225Z,9.91
2023-02-19T16:13:33.678Z,9.93
2023-02-19T16:16:15.340Z,9.89
2023-02-19T16:18:47.306Z,9.83
2023-02-19T16:21:24.458Z,9.87
2023-02-19T16:24:01.044Z,9.79
2023-02-19T16:26:29.564Z,9.71
2023-02-19T16:28:59.157Z,9.67
2023-02-19T16:31:27.485Z,9.69
2023-02-19T16:34:18.119Z,9.59
2023-02-19T16:36:49.336Z,9.55
2023-02-19T16:39:21.935Z,9.51
2023-02-19T16:42:15.664Z,9.45
2023-02-19T16:44:47.083Z,9.40
2023-02-19T16:47:33.305Z,9.31
2023-02-19T16:50:08.657Z,9.31
2023-02-19T16:52:39.326Z,9.28
2023-02-19T16:55:14.462Z,9.21
2023-02-19T16:57:44.997Z,9.28
2023-02-19T17:00:19.842Z,9.21
2023-02-19T17:02:52.612Z,9.18
2023-02-19T17:05:22.632Z,9.21
2023-02-19T17:07:51.246Z,9.17
2023-02-19T17:13:37.640Z,9.09
2023-02-19T17:16:08.897Z,9.06
2023-02-19T17:18:37.098Z,9.04
2023-02-19T17:21:14.894Z,8.99
2023-02-19T17:23:43.157Z,8.95
2023-02-19T17:26:15.430Z,8.87
2023-02-19T17:28:47.839Z,8.80
2023-02-19T17:31:16.901Z,8.71
2023-02-19T17:33:45.230Z,8.64
2023-02-19T17:36:18.668Z,8.57
2023-02-19T17:38:49.688Z,8.47
2023-02-19T17:41:20.395Z,8.43
2023-02-19T17:43:50.481Z,8.37
2023-02-19T17:46:20.345Z,8.27
2023-02-19T17:48:48.665Z,8.17
2023-02-19T17:51:19.660Z,8.19
2023-02-19T17:53:47.793Z,8.12
2023-02-19T17:56:21.015Z,8.07
2023-02-19T17:58:50.841Z,8.12
2023-02-19T18:01:19.332Z,8.10
2023-02-19T18:03:47.773Z,8.13
2023-02-19T18:06:18.261Z,8.12
2023-02-19T18:08:50.904Z,8.12
2023-02-19T18:11:20.259Z,8.11
2023-02-19T18:13:50.846Z,8.12
2023-02-19T18:16:19.866Z,8.08
2023-02-19T18:18:50.714Z,8.08
2023-02-19T18:21:19.294Z,8.10
2023-02-19T18:23:51.957Z,8.09
2023-02-19T18:26:21.732Z,8.09
2023-02-19T18:28:51.290Z,8.06
2023-02-19T18:31:20.181Z,8.09
2023-02-19T18:33:48.585Z,8.08
2023-02-19T18:36:18.489Z,8.05
2023-02-19T18:38:46.761Z,8.04
2023-02-19T18:41:19.807Z,8.02
2023-02-19T18:43:48.864Z,7.98
2023-02-19T18:46:21.965Z,7.98
2023-02-19T18:48:52.782Z,7.95
2023-02-19T18:51:25.891Z,7.96
2023-02-19T18:53:54.008Z,7.98
2023-02-19T18:56:24.541Z,7.97
2023-02-19T18:58:52.644Z,7.97
2023-02-19T19:01:22.422Z,7.94
2023-02-19T19:03:51.051Z,7.91
2023-02-19T19:06:19.338Z,7.88
2023-02-19T19:08:47.525Z,7.90
2023-02-19T19:11:18.536Z,7.92
2023-02-19T19:13:47.042Z,7.97
2023-02-19T19:16:15.310Z,7.96
2023-02-19T19:18:48.580Z,7.98
2023-02-19T19:21:18.211Z,7.97
2023-02-19T19:23:49.504Z,7.95
2023-02-19T19:26:20.411Z,7.97
2023-02-19T19:28:48.596Z,7.95
2023-02-19T19:31:20.397Z,7.91
2023-02-19T19:33:50.324Z,7.90
2023-02-19T19:36:21.185Z,7.93
2023-02-19T19:38:49.971Z,7.92
2023-02-19T19:41:19.322Z,7.88
2023-02-19T19:43:47.747Z,7.83
2023-02-19T19:46:20.636Z,7.82
2023-02-19T19:48:54.036Z,7.84
2023-02-19T19:51:24.535Z,7.84
2023-02-19T19:53:54.974Z,7.86
2023-02-19T19:56:23.549Z,7.83
2023-02-19T19:58:54.053Z,7.83
2023-02-19T20:01:23.272Z,7.83
2023-02-19T20:03:52.943Z,7.86
2023-02-19T20:06:29.329Z,7.83
2023-02-19T20:08:58.430Z,7.82
2023-02-19T20:11:27.166Z,7.79
2023-02-19T20:13:55.460Z,7.83
2023-02-19T20:16:29.892Z,7.91
2023-02-19T20:18:59.736Z,7.92
2023-02-19T20:21:28.124Z,7.92
2023-02-19T20:23:56.880Z,7.96
2023-02-19T20:26:26.702Z,7.95
2023-02-19T20:28:56.035Z,7.92
2023-02-19T20:31:24.680Z,7.86
2023-02-19T20:33:53.152Z,7.95
2023-02-19T20:36:27.716Z,7.96
2023-02-19T20:38:56.846Z,7.80
2023-02-19T20:41:25.155Z,7.92
2023-02-19T20:43:58.294Z,7.90
2023-02-19T20:46:26.439Z,7.87
2023-02-19T20:48:59.837Z,7.89
2023-02-19T20:51:29.418Z,7.86
2023-02-19T20:53:58.267Z,7.84
2023-02-19T20:59:13.544Z,7.86
2023-02-19T21:01:42.115Z,7.82
2023-02-19T21:04:10.475Z,7.81
2023-02-19T21:06:40.817Z,7.81
2023-02-19T21:09:09.302Z,7.83
2023-02-19T21:11:37.604Z,7.84
2023-02-19T21:14:05.881Z,7.82
2023-02-19T21:16:34.483Z,7.84
2023-02-19T21:19:02.939Z,7.83
2023-02-19T21:21:31.915Z,7.82
2023-02-19T21:24:02.968Z,7.80
2023-02-19T21:26:36.168Z,7.77
2023-02-19T21:29:04.936Z,7.76
2023-02-19T21:31:39.350Z,7.80
2023-02-19T21:34:08.402Z,7.79
2023-02-19T21:36:39.100Z,7.76
2023-02-19T21:39:10.738Z,7.77
2023-02-19T21:41:39.019Z,7.77
2023-02-19T21:44:09.648Z,7.74
2023-02-19T21:46:38.467Z,7.73
2023-02-19T21:49:07.285Z,7.74
2023-02-19T21:51:38.093Z,7.72
2023-02-19T21:54:09.019Z,7.64
2023-02-19T21:56:42.271Z,7.69
2023-02-19T21:59:13.586Z,7.68
2023-02-19T22:01:43.302Z,7.71
2023-02-19T22:04:15.711Z,7.69
2023-02-19T22:06:44.846Z,7.71
2023-02-19T22:09:15.306Z,7.67
2023-02-19T22:14:36.804Z,7.63
2023-02-19T22:17:04.957Z,7.65
2023-02-19T22:19:33.064Z,7.66
2023-02-19T22:22:01.290Z,7.69
2023-02-19T22:24:29.590Z,7.69
2023-02-19T22:26:59.015Z,7.71
2023-02-19T22:29:27.316Z,7.72
2023-02-19T22:31:57.443Z,7.71
2023-02-19T22:34:25.690Z,7.71
2023-02-19T22:36:53.917Z,7.71
2023-02-19T22:39:24.692Z,7.71
2023-02-19T22:41:53.797Z,7.74
2023-02-19T22:44:22.582Z,7.75
2023-02-19T22:46:55.261Z,7.77
2023-02-19T22:49:27.426Z,7.77
2023-02-19T22:51:59.528Z,7.77
2023-02-19T22:54:30.169Z,7.77
2023-02-19T22:56:58.230Z,7.74
2023-02-19T22:59:26.369Z,7.67
2023-02-19T23:01:55.208Z,7.62
2023-02-19T23:04:24.798Z,7.54
2023-02-19T23:06:56.831Z,7.49
2023-02-19T23:09:27.341Z,7.44
2023-02-19T23:12:03.109Z,7.30
2023-02-19T23:14:31.212Z,7.36
2023-02-19T23:16:59.919Z,7.34
2023-02-19T23:19:28.763Z,7.34
2023-02-19T23:21:58.786Z,7.34
2023-02-19T23:24:29.742Z,7.36
2023-02-19T23:26:59.648Z,7.46
2023-02-19T23:29:31.703Z,7.47
2023-02-19T23:32:00.841Z,7.46
2023-02-19T23:34:29.136Z,7.46
2023-02-19T23:36:59.720Z,7.42
2023-02-19T23:39:28.382Z,7.40
2023-02-19T23:41:58.744Z,7.34
2023-02-19T23:44:27.100Z,7.31
2023-02-19T23:46:55.513Z,7.28
2023-02-19T23:49:24.395Z,7.24
2023-02-19T23:51:52.814Z,7.21
2023-02-19T23:54:22.760Z,7.21
2023-02-19T23:56:51.054Z,7.07
2023-02-19T23:59:19.216Z,7.19
